createdAt,value
2017-04-21T00:00:15.118Z,9.13
2017-04-21T00:01:16.182Z,8.23
2017-04-21T00:02:17.161Z,8.35
2017-04-21T00:03:18.417Z,8.40
2017-04-21T00:04:19.708Z,8.18
2017-04-21T00:05:20.655Z,8.78
2017-04-21T00:06:22.121Z,9.58
2017-04-21T00:07:23.265Z,8.70
2017-04-21T00:08:24.588Z,8.77
2017-04-21T00:09:25.964Z,9.48
2017-04-21T00:10:26.991Z,7.22
2017-04-21T00:11:28.161Z,9.08
2017-04-21T00:12:29.270Z,9.13
2017-04-21T00:13:30.651Z,8.67
2017-04-21T00:14:31.936Z,8.85
2017-04-21T00:15:33.083Z,7.93
2017-04-21T00:16:34.387Z,8.32
2017-04-21T00:17:35.429Z,8.65
2017-04-21T00:18:36.549Z,9.27
2017-04-21T00:19:37.609Z,8.97
2017-04-21T00:20:38.799Z,7.82
2017-04-21T00:21:40.036Z,8.18
2017-04-21T00:22:41.194Z,8.15
2017-04-21T00:23:42.360Z,8.58
2017-04-21T00:24:43.417Z,8.15
2017-04-21T00:25:44.757Z,10.95
2017-04-21T00:26:45.976Z,8.35
2017-04-21T00:27:46.979Z,9.17
2017-04-21T00:28:48.137Z,8.05
2017-04-21T00:29:49.495Z,8.10
2017-04-21T00:30:51.220Z,8.85
2017-04-21T00:31:52.247Z,8.50
2017-04-21T00:32:53.459Z,8.07
2017-04-21T00:33:54.713Z,8.73
2017-04-21T00:34:55.978Z,8.20
2017-04-21T00:35:57.074Z,8.03
2017-04-21T00:36:58.288Z,9.35
2017-04-21T00:37:59.613Z,8.43
2017-04-21T00:39:00.702Z,8.52
2017-04-21T00:40:01.856Z,8.45
2017-04-21T00:41:03.004Z,8.87
2017-04-21T00:42:04.540Z,8.82
2017-04-21T00:43:05.705Z,8.32
2017-04-21T00:44:06.861Z,8.80
2017-04-21T00:45:08.070Z,7.57
2017-04-21T00:46:09.030Z,9.22
2017-04-21T00:47:09.955Z,8.05
2017-04-21T00:48:11.288Z,9.37
2017-04-21T00:49:13.296Z,9.15
2017-04-21T00:50:14.411Z,8.52
2017-04-21T00:51:15.479Z,9.42
2017-04-21T00:52:16.657Z,9.40
2017-04-21T00:53:17.738Z,10.08
2017-04-21T00:54:18.669Z,9.17
2017-04-21T00:55:19.623Z,8.50
2017-04-21T00:56:20.542Z,10.57
2017-04-21T00:57:21.809Z,10.12
2017-04-21T00:58:23.004Z,8.85
2017-04-21T00:59:24.330Z,9.10
2017-04-21T01:00:25.467Z,9.10
2017-04-21T01:01:26.440Z,8.93
2017-04-21T01:02:27.575Z,10.42
2017-04-21T01:03:28.633Z,8.40
2017-04-21T01:04:30.235Z,8.63
2017-04-21T01:05:31.270Z,9.00
2017-04-21T01:06:32.353Z,7.95
2017-04-21T01:07:34.188Z,9.02
2017-04-21T01:08:35.496Z,8.30
2017-04-21T01:09:36.365Z,9.28
2017-04-21T01:10:37.641Z,8.72
2017-04-21T01:11:38.777Z,9.13
2017-04-21T01:12:39.877Z,9.15
2017-04-21T01:13:41.100Z,10.30
2017-04-21T01:14:42.067Z,9.35
2017-04-21T01:15:43.308Z,8.47
2017-04-21T01:16:44.441Z,8.42
2017-04-21T01:17:45.592Z,8.27
2017-04-21T01:18:46.786Z,9.72
2017-04-21T01:19:47.967Z,9.88
2017-04-21T01:20:49.118Z,8.88
2017-04-21T01:21:50.417Z,8.85
2017-04-21T01:22:51.560Z,9.57
2017-04-21T01:23:52.907Z,8.82
2017-04-21T01:24:54.185Z,9.98
2017-04-21T01:25:55.585Z,8.88
2017-04-21T01:26:56.879Z,9.60
2017-04-21T01:27:58.302Z,8.60
2017-04-21T01:28:59.288Z,9.53
2017-04-21T01:30:00.254Z,9.63
2017-04-21T01:31:01.452Z,10.05
2017-04-21T01:32:02.481Z,9.87
2017-04-21T01:33:03.991Z,9.55
2017-04-21T01:34:05.027Z,9.55
2017-04-21T01:35:06.168Z,9.52
2017-04-21T01:36:07.353Z,9.33
2017-04-21T01:37:17.151Z,9.73
2017-04-21T01:38:19.445Z,9.82
2017-04-21T01:39:20.492Z,9.20
2017-04-21T01:40:21.741Z,9.32
2017-04-21T01:41:22.959Z,9.73
2017-04-21T01:42:23.985Z,9.02
2017-04-21T01:43:24.962Z,10.60
2017-04-21T01:44:26.143Z,8.88
2017-04-21T01:45:27.389Z,10.23
2017-04-21T01:46:28.680Z,9.27
2017-04-21T01:47:29.997Z,9.88
2017-04-21T01:48:32.436Z,10.88
2017-04-21T01:49:33.546Z,9.28
2017-04-21T01:50:34.792Z,9.98
2017-04-21T01:51:36.075Z,10.83
2017-04-21T01:52:37.025Z,9.83
2017-04-21T01:53:39.233Z,9.87
2017-04-21T01:54:40.528Z,9.05
2017-04-21T01:55:41.833Z,9.92
2017-04-21T01:56:42.755Z,9.02
2017-04-21T01:57:43.865Z,8.60
2017-04-21T01:58:45.068Z,9.58
2017-04-21T01:59:46.191Z,11.17
2017-04-21T02:00:47.309Z,10.20
2017-04-21T02:01:48.384Z,10.35
2017-04-21T02:02:49.745Z,9.47
2017-04-21T02:03:50.876Z,9.97
2017-04-21T02:04:52.001Z,10.47
2017-04-21T02:05:53.228Z,9.47
2017-04-21T02:06:54.452Z,9.30
2017-04-21T02:07:55.834Z,9.35
2017-04-21T02:08:56.945Z,9.88
2017-04-21T02:09:58.268Z,9.62
2017-04-21T02:10:59.250Z,10.08
2017-04-21T02:12:00.388Z,9.82
2017-04-21T02:13:01.704Z,9.05
2017-04-21T02:14:02.746Z,10.52
2017-04-21T02:15:03.790Z,10.35
2017-04-21T02:16:05.141Z,9.38
2017-04-21T02:17:06.417Z,9.40
2017-04-21T02:18:07.630Z,10.53
2017-04-21T02:19:08.894Z,9.03
2017-04-21T02:20:10.092Z,10.63
2017-04-21T02:21:11.435Z,10.27
2017-04-21T02:22:12.832Z,11.20
2017-04-21T02:23:14.817Z,11.13
2017-04-21T02:24:15.833Z,9.58
2017-04-21T02:25:16.981Z,9.20
2017-04-21T02:26:18.066Z,9.68
2017-04-21T02:27:19.245Z,10.00
2017-04-21T02:28:20.129Z,8.87
2017-04-21T02:29:21.295Z,8.72
2017-04-21T02:30:22.848Z,9.10
2017-04-21T02:31:23.831Z,9.18
2017-04-21T02:32:24.813Z,9.55
2017-04-21T02:33:25.938Z,9.43
2017-04-21T02:34:27.122Z,9.17
2017-04-21T02:35:28.272Z,8.87
2017-04-21T02:36:29.452Z,10.08
2017-04-21T02:37:30.639Z,9.80
2017-04-21T02:38:31.869Z,10.52
2017-04-21T02:39:33.087Z,10.32
2017-04-21T02:40:34.306Z,10.67
2017-04-21T02:41:35.355Z,9.18
2017-04-21T02:42:36.513Z,10.03
2017-04-21T02:43:37.512Z,9.58
2017-04-21T02:44:38.470Z,10.17
2017-04-21T02:45:39.787Z,10.12
2017-04-21T02:46:41.011Z,9.10
2017-04-21T02:47:42.345Z,10.62
2017-04-21T02:48:43.976Z,10.82
2017-04-21T02:49:45.179Z,10.27
2017-04-21T02:50:46.375Z,10.85
2017-04-21T02:51:47.448Z,10.55
2017-04-21T02:52:48.400Z,10.38
2017-04-21T02:53:50.201Z,10.87
2017-04-21T02:54:51.449Z,9.87
2017-04-21T02:55:52.655Z,9.73
2017-04-21T02:56:53.896Z,10.52
2017-04-21T02:57:55.204Z,10.42
2017-04-21T02:58:56.980Z,10.25
2017-04-21T02:59:58.292Z,10.70
2017-04-21T03:00:59.872Z,10.08
2017-04-21T03:02:01.014Z,9.67
2017-04-21T03:03:01.990Z,10.03
2017-04-21T03:04:02.920Z,10.95
2017-04-21T03:05:04.043Z,9.95
2017-04-21T03:06:05.511Z,10.10
2017-04-21T03:07:06.735Z,10.47
2017-04-21T03:08:08.019Z,11.05
2017-04-21T03:09:09.244Z,10.37
2017-04-21T03:10:10.587Z,10.22
2017-04-21T03:11:11.585Z,10.12
2017-04-21T03:12:12.743Z,9.65
2017-04-21T03:13:14.225Z,9.88
2017-04-21T03:14:15.611Z,10.63
2017-04-21T03:15:16.770Z,8.92
2017-04-21T03:16:17.889Z,10.30
2017-04-21T03:17:18.974Z,9.40
2017-04-21T03:18:19.993Z,10.20
2017-04-21T03:19:20.996Z,9.93
2017-04-21T03:20:22.268Z,9.95
2017-04-21T03:21:23.280Z,8.87
2017-04-21T03:22:24.440Z,10.17
2017-04-21T03:23:25.700Z,9.95
2017-04-21T03:24:26.941Z,10.07
2017-04-21T03:25:28.099Z,10.38
2017-04-21T03:26:29.579Z,9.73
2017-04-21T03:27:30.827Z,10.57
2017-04-21T03:28:32.014Z,11.28
2017-04-21T03:29:33.233Z,11.78
2017-04-21T03:30:34.575Z,9.62
2017-04-21T03:31:35.715Z,10.25
2017-04-21T03:32:36.935Z,9.93
2017-04-21T03:33:38.672Z,10.37
2017-04-21T03:34:39.960Z,10.17
2017-04-21T03:35:41.201Z,10.18
2017-04-21T03:36:42.407Z,10.93
2017-04-21T03:37:43.484Z,9.42
2017-04-21T03:38:44.689Z,10.33
2017-04-21T03:39:45.990Z,10.28
2017-04-21T03:40:47.144Z,10.53
2017-04-21T03:41:48.140Z,11.77
2017-04-21T03:42:49.809Z,12.32
2017-04-21T03:43:51.302Z,11.38
2017-04-21T03:44:52.442Z,11.42
2017-04-21T03:45:53.724Z,10.70
2017-04-21T03:46:54.963Z,12.03
2017-04-21T03:47:56.529Z,11.37
2017-04-21T03:48:57.852Z,11.40
2017-04-21T03:49:59.009Z,12.00
2017-04-21T03:51:00.227Z,10.65
2017-04-21T03:52:01.908Z,10.57
2017-04-21T03:53:03.926Z,13.02
2017-04-21T03:54:05.156Z,11.80
2017-04-21T03:55:06.315Z,11.50
2017-04-21T03:56:07.666Z,9.98
2017-04-21T03:57:09.018Z,11.02
2017-04-21T03:58:10.283Z,12.28
2017-04-21T03:59:11.816Z,11.05
2017-04-21T04:00:13.172Z,11.40
2017-04-21T04:01:14.855Z,11.45
2017-04-21T04:02:16.051Z,10.23
2017-04-21T04:03:17.216Z,11.10
2017-04-21T04:04:18.508Z,10.53
2017-04-21T04:05:19.667Z,10.35
2017-04-21T04:06:20.782Z,12.25
2017-04-21T04:07:21.950Z,10.73
2017-04-21T04:08:23.176Z,11.43
2017-04-21T04:09:24.448Z,11.48
2017-04-21T04:10:25.708Z,10.98
2017-04-21T04:11:26.735Z,10.95
2017-04-21T04:12:27.970Z,9.63
2017-04-21T04:13:29.568Z,11.55
2017-04-21T04:14:30.645Z,10.32
2017-04-21T04:15:31.833Z,11.67
2017-04-21T04:16:32.925Z,10.58
2017-04-21T04:17:33.882Z,11.72
2017-04-21T04:18:34.925Z,11.55
2017-04-21T04:19:36.152Z,11.03
2017-04-21T04:20:37.232Z,11.38
2017-04-21T04:21:38.405Z,11.12
2017-04-21T04:22:39.889Z,11.97
2017-04-21T04:23:41.159Z,12.08
2017-04-21T04:24:42.376Z,13.10
2017-04-21T04:25:43.812Z,12.65
2017-04-21T04:26:45.012Z,11.57
2017-04-21T04:27:46.308Z,12.48
2017-04-21T04:28:52.364Z,10.37
2017-04-21T04:29:57.129Z,10.47
2017-04-21T04:31:01.687Z,10.47
2017-04-21T04:32:06.137Z,10.48
2017-04-21T04:33:10.397Z,10.78
2017-04-21T04:34:11.806Z,11.83
2017-04-21T04:35:13.039Z,11.55
2017-04-21T04:36:14.260Z,10.93
2017-04-21T04:37:15.448Z,11.48
2017-04-21T04:38:16.667Z,10.85
2017-04-21T04:39:17.930Z,11.52
2017-04-21T04:40:19.105Z,13.30
2017-04-21T04:41:20.471Z,11.50
2017-04-21T04:42:22.652Z,11.92
2017-04-21T04:43:25.700Z,11.75
2017-04-21T04:44:32.589Z,10.73
2017-04-21T04:45:36.428Z,13.32
2017-04-21T04:46:39.819Z,12.32
2017-04-21T04:47:41.902Z,11.07
2017-04-21T04:48:44.901Z,12.68
2017-04-21T04:49:46.183Z,11.55
2017-04-21T04:50:47.271Z,12.72
2017-04-21T04:51:48.423Z,12.57
2017-04-21T04:52:49.941Z,12.22
2017-04-21T04:53:51.415Z,12.95
2017-04-21T04:54:52.774Z,11.02
2017-04-21T04:55:54.743Z,11.87
2017-04-21T04:56:56.834Z,12.50
2017-04-21T04:57:58.489Z,13.33
2017-04-21T04:58:59.714Z,15.52
2017-04-21T05:00:01.092Z,12.80
2017-04-21T05:01:03.558Z,11.43
2017-04-21T05:02:04.663Z,9.82
2017-04-21T05:03:05.780Z,12.50
2017-04-21T05:04:06.916Z,12.67
2017-04-21T05:05:07.970Z,12.18
2017-04-21T05:06:09.103Z,10.98
2017-04-21T05:07:10.364Z,11.43
2017-04-21T05:08:11.625Z,10.45
2017-04-21T05:09:13.120Z,12.42
2017-04-21T05:10:14.380Z,12.37
2017-04-21T05:11:15.690Z,11.00
2017-04-21T05:12:16.821Z,12.10
2017-04-21T05:13:18.013Z,12.00
2017-04-21T05:14:19.252Z,12.25
2017-04-21T05:15:20.544Z,10.30
2017-04-21T05:16:21.888Z,12.55
2017-04-21T05:17:22.974Z,12.93
2017-04-21T05:18:23.967Z,13.35
2017-04-21T05:19:25.153Z,10.45
2017-04-21T05:20:26.467Z,12.15
2017-04-21T05:21:28.091Z,10.23
2017-04-21T05:22:29.300Z,11.00
2017-04-21T05:23:30.542Z,11.28
2017-04-21T05:24:31.755Z,12.48
2017-04-21T05:25:32.847Z,12.00
2017-04-21T05:26:34.066Z,12.47
2017-04-21T05:27:35.014Z,10.48
2017-04-21T05:28:36.240Z,12.08
2017-04-21T05:29:37.611Z,13.37
2017-04-21T05:30:40.234Z,11.85
2017-04-21T05:31:41.167Z,11.13
2017-04-21T05:32:42.377Z,10.72
2017-04-21T05:33:43.614Z,13.97
2017-04-21T05:34:44.855Z,11.47
2017-04-21T05:35:58.879Z,12.58
2017-04-21T05:37:04.397Z,12.73
2017-04-21T05:38:11.482Z,12.48
2017-04-21T05:39:14.216Z,12.60
2017-04-21T05:40:15.308Z,12.42
2017-04-21T05:41:16.675Z,9.02
2017-04-21T05:42:18.011Z,11.38
2017-04-21T05:43:19.301Z,13.18
2017-04-21T05:44:20.381Z,10.40
2017-04-21T05:45:21.880Z,15.73
2017-04-21T05:46:23.731Z,12.07
2017-04-21T05:47:24.893Z,12.62
2017-04-21T05:48:26.219Z,13.55
2017-04-21T05:49:27.376Z,15.38
2017-04-21T05:50:29.401Z,12.50
2017-04-21T05:51:32.613Z,12.08
2017-04-21T05:52:38.873Z,12.60
2017-04-21T05:53:43.241Z,13.20
2017-04-21T05:54:44.882Z,15.22
2017-04-21T05:55:45.971Z,13.32
2017-04-21T05:56:47.692Z,13.57
2017-04-21T05:57:53.035Z,15.42
2017-04-21T05:59:00.539Z,15.87
2017-04-21T06:00:07.473Z,12.12
2017-04-21T06:01:08.528Z,13.98
2017-04-21T06:02:09.527Z,15.05
2017-04-21T06:03:10.643Z,13.85
2017-04-21T06:04:11.762Z,14.87
2017-04-21T06:05:12.892Z,13.13
2017-04-21T06:06:14.025Z,15.78
2017-04-21T06:07:15.171Z,13.00
2017-04-21T06:08:16.338Z,17.37
2017-04-21T06:09:17.428Z,14.03
2017-04-21T06:10:18.530Z,12.13
2017-04-21T06:11:19.632Z,13.78
2017-04-21T06:12:20.738Z,16.10
2017-04-21T06:13:21.944Z,15.40
2017-04-21T06:14:23.164Z,14.63
2017-04-21T06:15:24.335Z,14.55
2017-04-21T06:16:25.452Z,15.42
2017-04-21T06:17:26.650Z,14.97
2017-04-21T06:18:28.204Z,15.52
2017-04-21T06:19:29.297Z,15.77
2017-04-21T06:20:30.814Z,15.57
2017-04-21T06:21:31.785Z,15.92
2017-04-21T06:22:33.461Z,14.17
2017-04-21T06:23:34.801Z,14.83
2017-04-21T06:24:35.916Z,15.92
2017-04-21T06:25:37.031Z,12.88
2017-04-21T06:26:37.963Z,17.65
2017-04-21T06:27:38.887Z,14.38
2017-04-21T06:28:40.032Z,13.50
2017-04-21T06:29:41.160Z,15.32
2017-04-21T06:30:42.292Z,17.82
2017-04-21T06:31:43.424Z,14.03
2017-04-21T06:32:44.587Z,13.62
2017-04-21T06:33:45.755Z,14.28
2017-04-21T06:34:46.843Z,17.62
2017-04-21T06:35:47.923Z,16.00
2017-04-21T06:36:49.070Z,14.80
2017-04-21T06:37:50.242Z,17.58
2017-04-21T06:38:51.249Z,15.27
2017-04-21T06:39:52.422Z,15.77
2017-04-21T06:40:53.554Z,16.15
2017-04-21T06:41:55.066Z,14.47
2017-04-21T06:42:56.630Z,17.82
2017-04-21T06:43:58.057Z,16.20
2017-04-21T06:44:59.454Z,16.67
2017-04-21T06:46:00.357Z,15.50
2017-04-21T06:47:01.277Z,16.37
2017-04-21T06:48:02.491Z,13.87
2017-04-21T06:49:03.580Z,17.75
2017-04-21T06:50:04.740Z,15.25
2017-04-21T06:51:05.871Z,15.28
2017-04-21T06:52:07.022Z,17.83
2017-04-21T06:53:08.175Z,15.37
2017-04-21T06:54:09.292Z,14.63
2017-04-21T06:55:10.776Z,17.48
2017-04-21T06:56:11.728Z,15.30
2017-04-21T06:57:13.200Z,16.35
2017-04-21T06:58:14.400Z,17.87
2017-04-21T06:59:15.513Z,16.58
2017-04-21T07:00:16.633Z,17.62
2017-04-21T07:01:17.725Z,17.03
2017-04-21T07:02:18.964Z,16.58
2017-04-21T07:03:19.997Z,19.58
2017-04-21T07:04:21.177Z,18.72
2017-04-21T07:05:22.319Z,17.75
2017-04-21T07:06:23.336Z,17.52
2017-04-21T07:07:24.461Z,21.13
2017-04-21T07:08:25.544Z,19.00
2017-04-21T07:09:26.708Z,16.72
2017-04-21T07:10:27.803Z,18.73
2017-04-21T07:11:28.905Z,19.78
2017-04-21T07:12:29.989Z,17.73
2017-04-21T07:13:31.086Z,18.77
2017-04-21T07:14:32.527Z,19.30
2017-04-21T07:15:33.633Z,18.58
2017-04-21T07:16:34.723Z,15.92
2017-04-21T07:17:35.830Z,17.32
2017-04-21T07:18:36.971Z,16.97
2017-04-21T07:19:38.094Z,22.72
2017-04-21T07:20:39.257Z,20.30
2017-04-21T07:21:40.443Z,19.47
2017-04-21T07:22:41.384Z,18.45
2017-04-21T07:23:42.527Z,19.77
2017-04-21T07:24:43.610Z,17.07
2017-04-21T07:25:44.791Z,21.68
2017-04-21T07:26:45.715Z,19.17
2017-04-21T07:27:46.853Z,19.73
2017-04-21T07:28:47.971Z,22.47
2017-04-21T07:29:49.356Z,20.00
2017-04-21T07:30:50.518Z,23.25
2017-04-21T07:31:51.729Z,18.78
2017-04-21T07:32:52.907Z,22.70
2017-04-21T07:33:54.025Z,19.10
2017-04-21T07:34:55.113Z,21.38
2017-04-21T07:36:57.635Z,23.63
2017-04-21T07:37:58.827Z,21.07
2017-04-21T07:38:59.756Z,20.10
2017-04-21T07:40:00.840Z,19.32
2017-04-21T07:41:01.805Z,21.78
2017-04-21T07:42:02.910Z,24.28
2017-04-21T07:43:03.943Z,20.68
2017-04-21T07:44:05.065Z,21.43
2017-04-21T07:45:06.620Z,23.28
2017-04-21T07:46:07.628Z,21.97
2017-04-21T07:47:08.828Z,20.58
2017-04-21T07:48:09.966Z,21.77
2017-04-21T07:49:11.056Z,22.87
2017-04-21T07:50:12.211Z,22.05
2017-04-21T07:51:13.396Z,20.60
2017-04-21T07:52:14.545Z,19.93
2017-04-21T07:53:15.726Z,21.88
2017-04-21T07:54:16.845Z,23.55
2017-04-21T07:55:17.817Z,22.68
2017-04-21T07:56:18.994Z,25.45
2017-04-21T07:57:20.089Z,21.62
2017-04-21T07:58:21.255Z,26.47
2017-04-21T07:59:22.376Z,21.70
2017-04-21T08:00:23.685Z,23.27
2017-04-21T08:01:24.780Z,27.30
2017-04-21T08:02:25.908Z,26.60
2017-04-21T08:03:27.081Z,23.47
2017-04-21T08:04:28.187Z,23.75
2017-04-21T08:05:29.343Z,24.12
2017-04-21T08:06:30.451Z,24.43
2017-04-21T08:07:31.587Z,27.27
2017-04-21T08:08:32.737Z,22.83
2017-04-21T08:09:33.844Z,26.17
2017-04-21T08:10:35.012Z,24.38
2017-04-21T08:11:36.108Z,25.68
2017-04-21T08:12:37.226Z,27.60
2017-04-21T08:13:38.407Z,27.55
2017-04-21T08:14:39.509Z,25.00
2017-04-21T08:15:40.627Z,25.83
2017-04-21T08:16:41.810Z,25.62
2017-04-21T08:17:42.958Z,27.87
2017-04-21T08:18:44.178Z,29.03
2017-04-21T08:19:45.340Z,26.82
2017-04-21T08:20:46.388Z,30.43
2017-04-21T08:21:47.550Z,33.83
2017-04-21T08:22:48.730Z,28.22
2017-04-21T08:23:49.977Z,30.93
2017-04-21T08:24:51.215Z,27.78
2017-04-21T08:25:52.373Z,29.30
2017-04-21T08:26:53.525Z,29.40
2017-04-21T08:27:54.667Z,31.85
2017-04-21T08:28:56.381Z,32.22
2017-04-21T08:29:58.330Z,33.42
2017-04-21T08:30:59.485Z,28.28
2017-04-21T08:32:01.008Z,29.42
2017-04-21T08:33:02.136Z,29.53
2017-04-21T08:34:03.425Z,31.23
2017-04-21T08:35:04.607Z,35.53
2017-04-21T08:36:06.143Z,33.00
2017-04-21T08:37:07.229Z,28.93
2017-04-21T08:38:08.180Z,32.07
2017-04-21T08:39:09.376Z,32.90
2017-04-21T08:40:10.675Z,29.97
2017-04-21T08:41:11.819Z,33.12
2017-04-21T08:42:12.760Z,29.50
2017-04-21T08:43:13.878Z,32.55
2017-04-21T08:44:15.045Z,31.52
2017-04-21T08:45:16.288Z,30.83
2017-04-21T08:46:17.482Z,32.33
2017-04-21T08:47:18.665Z,30.30
2017-04-21T08:48:19.801Z,33.22
2017-04-21T08:49:20.928Z,31.47
2017-04-21T08:50:22.149Z,31.23
2017-04-21T08:51:23.735Z,33.73
2017-04-21T08:52:24.867Z,34.70
2017-04-21T08:53:26.003Z,29.83
2017-04-21T08:54:27.589Z,32.65
2017-04-21T08:55:28.831Z,28.87
2017-04-21T08:56:29.911Z,34.38
2017-04-21T08:57:30.945Z,39.53
2017-04-21T08:58:32.098Z,35.38
2017-04-21T08:59:33.232Z,35.50
2017-04-21T09:00:34.495Z,34.83
2017-04-21T09:01:35.645Z,36.08
2017-04-21T09:02:36.572Z,36.43
2017-04-21T09:03:37.712Z,31.77
2017-04-21T09:04:38.828Z,32.97
2017-04-21T09:05:40.063Z,38.05
2017-04-21T09:06:41.301Z,34.40
2017-04-21T09:07:42.475Z,36.12
2017-04-21T09:08:43.431Z,34.58
2017-04-21T09:09:44.581Z,32.85
2017-04-21T09:10:45.767Z,35.50
2017-04-21T09:11:46.945Z,36.42
2017-04-21T09:12:48.100Z,32.60
2017-04-21T09:13:49.291Z,34.50
2017-04-21T09:14:50.589Z,31.68
2017-04-21T09:15:51.749Z,34.80
2017-04-21T09:16:52.853Z,34.72
2017-04-21T09:17:54.088Z,35.03
2017-04-21T09:18:55.290Z,34.70
2017-04-21T09:19:56.520Z,34.43
2017-04-21T09:20:57.816Z,32.93
2017-04-21T09:21:59.028Z,35.55
2017-04-21T09:23:00.197Z,35.72
2017-04-21T09:24:01.345Z,34.32
2017-04-21T09:25:02.312Z,34.70
2017-04-21T09:26:03.600Z,33.55
2017-04-21T09:27:04.703Z,32.18
2017-04-21T09:28:05.883Z,33.40
2017-04-21T09:29:06.968Z,33.78
2017-04-21T09:30:08.477Z,35.97
2017-04-21T09:32:04.257Z,30.88
2017-04-21T09:32:11.223Z,31.93
2017-04-21T09:33:12.413Z,34.87
2017-04-21T09:34:33.408Z,32.30
2017-04-21T09:35:14.569Z,34.48
2017-04-21T09:36:15.717Z,27.70
2017-04-21T09:37:17.249Z,32.02
2017-04-21T09:38:18.402Z,33.35
2017-04-21T09:39:19.576Z,33.78
2017-04-21T09:40:20.717Z,31.62
2017-04-21T09:41:21.825Z,34.42
2017-04-21T09:42:22.968Z,30.85
2017-04-21T09:43:23.937Z,31.77
2017-04-21T09:44:24.899Z,32.98
2017-04-21T09:45:26.001Z,33.22
2017-04-21T09:46:27.099Z,34.45
2017-04-21T09:47:28.221Z,27.83
2017-04-21T09:48:29.360Z,33.02
2017-04-21T09:49:30.564Z,36.00
2017-04-21T09:50:32.138Z,32.03
2017-04-21T09:51:33.362Z,35.05
2017-04-21T09:52:34.628Z,35.68
2017-04-21T09:54:14.223Z,35.22
2017-04-21T09:56:05.055Z,33.08
2017-04-21T09:59:18.162Z,33.67
2017-04-21T09:59:48.181Z,34.90
2017-04-21T09:59:59.154Z,31.20
2017-04-21T10:00:06.710Z,36.07
2017-04-21T10:04:31.647Z,33.62
2017-04-21T10:05:05.337Z,33.18
2017-04-21T10:05:50.878Z,31.08
2017-04-21T10:07:09.583Z,35.55
2017-04-21T10:07:13.296Z,36.17
2017-04-21T10:07:27.537Z,34.82
2017-04-21T10:07:53.171Z,37.98
2017-04-21T10:07:56.539Z,30.62
2017-04-21T10:07:56.695Z,34.15
2017-04-21T10:08:54.326Z,32.97
2017-04-21T10:09:55.461Z,32.10
2017-04-21T10:10:56.825Z,32.42
2017-04-21T10:11:58.209Z,30.48
2017-04-21T10:12:59.362Z,33.98
2017-04-21T10:14:00.504Z,33.75
2017-04-21T10:15:01.639Z,33.82
2017-04-21T10:16:02.937Z,35.57
2017-04-21T10:17:03.939Z,32.47
2017-04-21T10:18:05.125Z,31.60
2017-04-21T10:19:06.269Z,29.63
2017-04-21T10:20:07.402Z,32.65
2017-04-21T10:21:08.586Z,30.67
2017-04-21T10:22:10.136Z,30.02
2017-04-21T10:23:11.255Z,29.63
2017-04-21T10:24:12.353Z,30.98
2017-04-21T10:25:13.326Z,32.82
2017-04-21T10:26:14.441Z,28.33
2017-04-21T10:27:15.835Z,33.30
2017-04-21T10:28:17.008Z,29.38
2017-04-21T10:29:18.025Z,32.37
2017-04-21T10:30:19.221Z,27.70
2017-04-21T10:31:20.351Z,32.68
2017-04-21T10:32:21.574Z,26.32
2017-04-21T10:33:22.797Z,31.15
2017-04-21T10:34:23.916Z,26.55
2017-04-21T10:35:25.014Z,27.93
2017-04-21T10:36:26.252Z,29.78
2017-04-21T10:37:27.406Z,31.73
2017-04-21T10:38:28.653Z,26.77
2017-04-21T10:39:29.762Z,30.85
2017-04-21T10:40:31.053Z,31.05
2017-04-21T10:41:32.170Z,33.55
2017-04-21T10:42:33.409Z,29.87
2017-04-21T10:43:34.629Z,35.75
2017-04-21T10:44:35.829Z,29.32
2017-04-21T10:45:36.971Z,31.83
2017-04-21T10:46:38.001Z,30.63
2017-04-21T10:47:39.203Z,30.12
2017-04-21T10:48:40.523Z,28.37
2017-04-21T10:49:41.682Z,32.98
2017-04-21T10:50:42.844Z,32.82
2017-04-21T10:51:43.998Z,31.85
2017-04-21T10:52:45.152Z,31.50
2017-04-21T10:53:46.395Z,33.00
2017-04-21T10:54:47.529Z,30.30
2017-04-21T10:55:48.707Z,29.53
2017-04-21T10:56:49.941Z,30.50
2017-04-21T10:57:51.147Z,32.87
2017-04-21T10:58:52.507Z,30.55
2017-04-21T10:59:53.639Z,29.07
2017-04-21T11:00:54.838Z,30.77
2017-04-21T11:01:56.175Z,29.43
2017-04-21T11:02:57.727Z,27.17
2017-04-21T11:03:59.007Z,27.40
2017-04-21T11:05:00.132Z,29.13
2017-04-21T11:06:01.406Z,30.87
2017-04-21T11:07:02.589Z,31.75
2017-04-21T11:08:03.725Z,30.45
2017-04-21T11:09:05.369Z,31.50
2017-04-21T11:10:06.757Z,30.70
2017-04-21T11:11:07.919Z,31.80
2017-04-21T11:12:09.014Z,31.90
2017-04-21T11:13:09.940Z,29.27
2017-04-21T11:14:11.159Z,29.53
2017-04-21T11:15:12.288Z,29.27
2017-04-21T11:16:13.415Z,30.82
2017-04-21T11:17:14.570Z,29.45
2017-04-21T11:18:15.758Z,30.57
2017-04-21T11:19:16.954Z,28.23
2017-04-21T11:20:18.169Z,34.18
2017-04-21T11:21:19.373Z,28.80
2017-04-21T11:22:20.362Z,29.48
2017-04-21T11:23:21.947Z,26.68
2017-04-21T11:24:23.135Z,28.10
2017-04-21T11:25:24.649Z,32.65
2017-04-21T11:26:25.751Z,27.12
2017-04-21T11:27:26.883Z,33.98
2017-04-21T11:28:28.031Z,29.42
2017-04-21T11:29:29.303Z,31.50
2017-04-21T11:30:30.973Z,31.23
2017-04-21T11:31:32.091Z,28.55
2017-04-21T11:32:33.224Z,29.08
2017-04-21T11:33:34.603Z,29.57
2017-04-21T11:34:35.809Z,28.15
2017-04-21T11:35:37.019Z,31.68
2017-04-21T11:36:38.155Z,28.95
2017-04-21T11:37:39.316Z,27.22
2017-04-21T11:38:40.439Z,26.70
2017-04-21T11:39:41.600Z,28.62
2017-04-21T11:40:43.104Z,27.72
2017-04-21T11:41:44.086Z,29.92
2017-04-21T11:42:45.247Z,28.10
2017-04-21T11:43:46.375Z,27.07
2017-04-21T11:44:47.533Z,26.78
2017-04-21T11:45:48.724Z,31.23
2017-04-21T11:46:49.870Z,30.27
2017-04-21T11:47:51.075Z,29.85
2017-04-21T11:48:52.307Z,25.43
2017-04-21T11:49:53.827Z,29.27
2017-04-21T11:50:55.008Z,28.85
2017-04-21T11:51:56.332Z,26.80
2017-04-21T11:52:57.586Z,26.85
2017-04-21T11:53:58.755Z,26.20
2017-04-21T11:54:59.954Z,23.53
2017-04-21T11:56:01.137Z,23.20
2017-04-21T11:57:02.120Z,25.75
2017-04-21T11:58:03.379Z,23.73
2017-04-21T11:59:04.631Z,24.12
2017-04-21T12:00:05.804Z,23.35
2017-04-21T12:01:06.764Z,25.22
2017-04-21T12:02:07.880Z,23.30
2017-04-21T12:03:09.032Z,26.58
2017-04-21T12:04:10.201Z,22.32
2017-04-21T12:05:11.383Z,23.37
2017-04-21T12:06:12.438Z,23.95
2017-04-21T12:07:13.554Z,22.00
2017-04-21T12:08:14.860Z,26.62
2017-04-21T12:09:16.005Z,21.50
2017-04-21T12:10:17.214Z,22.73
2017-04-21T12:11:18.444Z,23.58
2017-04-21T12:12:19.576Z,22.33
2017-04-21T12:13:20.739Z,21.05
2017-04-21T12:14:21.977Z,21.52
2017-04-21T12:15:23.076Z,22.85
2017-04-21T12:16:24.239Z,20.00
2017-04-21T12:17:25.391Z,21.18
2017-04-21T12:18:26.672Z,22.48
2017-04-21T12:19:27.993Z,22.80
2017-04-21T12:20:29.519Z,23.05
2017-04-21T12:21:31.043Z,22.07
2017-04-21T12:22:32.305Z,22.27
2017-04-21T12:23:33.658Z,20.05
2017-04-21T12:24:34.963Z,19.27
2017-04-21T12:25:36.201Z,19.32
2017-04-21T12:26:37.370Z,17.95
2017-04-21T12:27:38.583Z,20.83
2017-04-21T12:28:39.790Z,21.80
2017-04-21T12:29:41.073Z,20.52
2017-04-21T12:30:42.533Z,20.87
2017-04-21T12:31:43.667Z,19.02
2017-04-21T12:32:44.971Z,21.12
2017-04-21T12:33:46.283Z,22.27
2017-04-21T12:34:47.716Z,22.58
2017-04-21T12:35:48.955Z,18.62
2017-04-21T12:36:50.279Z,18.67
2017-04-21T12:37:51.736Z,17.77
2017-04-21T12:38:53.117Z,21.70
2017-04-21T12:39:54.420Z,21.08
2017-04-21T12:40:55.855Z,19.67
2017-04-21T12:41:57.227Z,20.08
2017-04-21T12:42:58.448Z,19.15
2017-04-21T12:43:59.795Z,22.22
2017-04-21T12:45:01.029Z,22.47
2017-04-21T12:46:02.401Z,24.50
2017-04-21T12:47:03.669Z,23.00
2017-04-21T12:48:04.986Z,20.48
2017-04-21T12:49:06.316Z,18.22
2017-04-21T12:50:07.384Z,17.87
2017-04-21T12:51:08.527Z,22.18
2017-04-21T12:52:09.841Z,21.07
2017-04-21T12:53:11.293Z,26.55
2017-04-21T12:54:12.593Z,21.20
2017-04-21T12:55:13.920Z,22.62
2017-04-21T12:56:15.202Z,20.80
2017-04-21T12:57:16.428Z,20.82
2017-04-21T12:58:17.953Z,22.25
2017-04-21T12:59:19.440Z,23.90
2017-04-21T13:00:20.902Z,23.17
2017-04-21T13:01:22.108Z,22.70
2017-04-21T13:02:23.547Z,25.17
2017-04-21T13:03:24.930Z,24.80
2017-04-21T13:04:26.188Z,23.82
2017-04-21T13:05:27.535Z,23.53
2017-04-21T13:06:28.711Z,26.87
2017-04-21T13:07:30.268Z,22.30
2017-04-21T13:08:31.417Z,22.80
2017-04-21T13:09:32.876Z,22.18
2017-04-21T13:10:34.111Z,20.23
2017-04-21T13:11:35.143Z,20.10
2017-04-21T13:12:36.353Z,19.47
2017-04-21T13:13:37.564Z,19.08
2017-04-21T13:14:38.844Z,20.90
2017-04-21T13:15:40.151Z,19.15